Spindale, North Carolina
Current Conditions -  °F | °C
As of 3:35 AM on Friday 24 Oct 2014 (Local Time) from KFQD Reporting Station
Clear Clear  
Wind Chill: 42°   Ceiling: Unl
Heat Index: 45°   Visibility: 10mi
Dew Point: 40°   Wind: 6mph
Humidity: 83%   Direction: 290°WNW
Pressure: 30.06"   Gusts: NA
Location:  35.36°N, 81.93°W
Report Text: KFQD 240735Z AUTO 29005KT 10SM CLR 07/05 A3006 RMK AO2 T00720045
Loading
Personal Weather Stations






























Interactive Weather Map
Tropical Storm Tracking
New forecast layout! Learn more

10-Day Weather Forecast

Advertisements
Track Severe Weather on mobile